sensor_id;sensor_type;location;lat;lon;timestamp;P1;durP1;ratioP1;P2;durP2;ratioP2
35488;SDS011;21602;55.670;37.578;2023-03-08T00:02:22;8.80;;;5.03;;
35488;SDS011;21602;55.670;37.578;2023-03-08T00:04:47;9.32;;;5.60;;
35488;SDS011;21602;55.670;37.578;2023-03-08T00:07:13;16.00;;;7.07;;
35488;SDS011;21602;55.670;37.578;2023-03-08T00:09:40;10.95;;;6.25;;
35488;SDS011;21602;55.670;37.578;2023-03-08T00:12:06;7.45;;;5.40;;
35488;SDS011;21602;55.670;37.578;2023-03-08T00:14:32;8.75;;;5.13;;
35488;SDS011;21602;55.670;37.578;2023-03-08T00:16:58;11.32;;;5.15;;
35488;SDS011;21602;55.670;37.578;2023-03-08T00:19:24;7.72;;;5.07;;
35488;SDS011;21602;55.670;37.578;2023-03-08T00:21:51;9.27;;;5.55;;
35488;SDS011;21602;55.670;37.578;2023-03-08T00:24:16;7.00;;;4.63;;
35488;SDS011;21602;55.670;37.578;2023-03-08T00:26:44;8.38;;;5.63;;
35488;SDS011;21602;55.670;37.578;2023-03-08T00:29:10;9.95;;;5.57;;
35488;SDS011;21602;55.670;37.578;2023-03-08T00:31:36;8.68;;;5.60;;
35488;SDS011;21602;55.670;37.578;2023-03-08T00:34:02;8.93;;;5.93;;
35488;SDS011;21602;55.670;37.578;2023-03-08T00:36:28;10.00;;;5.45;;
35488;SDS011;21602;55.670;37.578;2023-03-08T00:38:54;8.50;;;5.28;;
35488;SDS011;21602;55.670;37.578;2023-03-08T00:41:21;11.15;;;5.43;;
35488;SDS011;21602;55.670;37.578;2023-03-08T00:43:47;8.68;;;6.10;;
35488;SDS011;21602;55.670;37.578;2023-03-08T00:46:14;8.13;;;5.75;;
35488;SDS011;21602;55.670;37.578;2023-03-08T00:48:40;9.77;;;5.38;;
35488;SDS011;21602;55.670;37.578;2023-03-08T00:51:07;8.90;;;5.93;;
35488;SDS011;21602;55.670;37.578;2023-03-08T00:53:36;10.00;;;5.88;;
35488;SDS011;21602;55.670;37.578;2023-03-08T00:56:01;9.23;;;5.88;;
35488;SDS011;21602;55.670;37.578;2023-03-08T00:58:30;9.45;;;5.70;;
35488;SDS011;21602;55.670;37.578;2023-03-08T01:00:56;11.98;;;5.70;;
35488;SDS011;21602;55.670;37.578;2023-03-08T01:03:22;11.70;;;5.80;;
35488;SDS011;21602;55.670;37.578;2023-03-08T01:05:49;9.32;;;5.47;;
35488;SDS011;21602;55.670;37.578;2023-03-08T01:08:17;9.57;;;5.70;;
35488;SDS011;21602;55.670;37.578;2023-03-08T01:10:50;8.43;;;5.03;;
35488;SDS011;21602;55.670;37.578;2023-03-08T01:13:18;9.05;;;5.78;;
35488;SDS011;21602;55.670;37.578;2023-03-08T01:15:45;6.70;;;5.13;;
35488;SDS011;21602;55.670;37.578;2023-03-08T01:18:11;9.20;;;5.70;;
35488;SDS011;21602;55.670;37.578;2023-03-08T01:20:37;8.10;;;5.20;;
35488;SDS011;21602;55.670;37.578;2023-03-08T01:23:03;8.32;;;5.25;;
35488;SDS011;21602;55.670;37.578;2023-03-08T01:25:29;9.23;;;6.07;;
35488;SDS011;21602;55.670;37.578;2023-03-08T01:27:56;11.48;;;6.47;;
35488;SDS011;21602;55.670;37.578;2023-03-08T01:30:22;10.95;;;6.00;;
35488;SDS011;21602;55.670;37.578;2023-03-08T01:32:49;9.87;;;5.90;;
35488;SDS011;21602;55.670;37.578;2023-03-08T01:35:15;9.35;;;5.45;;
35488;SDS011;21602;55.670;37.578;2023-03-08T01:37:41;11.77;;;6.50;;
35488;SDS011;21602;55.670;37.578;2023-03-08T01:40:07;9.50;;;5.37;;
35488;SDS011;21602;55.670;37.578;2023-03-08T01:42:36;10.02;;;5.53;;
35488;SDS011;21602;55.670;37.578;2023-03-08T01:45:04;8.15;;;5.82;;
35488;SDS011;21602;55.670;37.578;2023-03-08T01:48:01;13.15;;;6.15;;
35488;SDS011;21602;55.670;37.578;2023-03-08T01:50:46;8.15;;;5.65;;
35488;SDS011;21602;55.670;37.578;2023-03-08T01:53:12;11.20;;;5.95;;
35488;SDS011;21602;55.670;37.578;2023-03-08T01:55:38;8.52;;;5.47;;
35488;SDS011;21602;55.670;37.578;2023-03-08T01:58:05;10.98;;;6.45;;
35488;SDS011;21602;55.670;37.578;2023-03-08T02:00:31;10.97;;;5.80;;
35488;SDS011;21602;55.670;37.578;2023-03-08T02:03:01;9.93;;;5.87;;
35488;SDS011;21602;55.670;37.578;2023-03-08T02:05:31;10.10;;;6.33;;
35488;SDS011;21602;55.670;37.578;2023-03-08T02:08:07;10.20;;;6.10;;
35488;SDS011;21602;55.670;37.578;2023-03-08T02:13:22;11.50;;;6.10;;
35488;SDS011;21602;55.670;37.578;2023-03-08T02:15:49;12.13;;;6.57;;
35488;SDS011;21602;55.670;37.578;2023-03-08T02:18:19;11.23;;;6.77;;
35488;SDS011;21602;55.670;37.578;2023-03-08T02:20:45;12.70;;;7.00;;
35488;SDS011;21602;55.670;37.578;2023-03-08T02:25:40;11.40;;;6.80;;
35488;SDS011;21602;55.670;37.578;2023-03-08T02:28:14;13.10;;;7.00;;
35488;SDS011;21602;55.670;37.578;2023-03-08T02:30:40;12.10;;;6.93;;
35488;SDS011;21602;55.670;37.578;2023-03-08T02:33:06;12.20;;;6.57;;
35488;SDS011;21602;55.670;37.578;2023-03-08T02:35:32;12.83;;;7.83;;
35488;SDS011;21602;55.670;37.578;2023-03-08T02:37:58;12.93;;;7.53;;
35488;SDS011;21602;55.670;37.578;2023-03-08T02:40:24;16.03;;;7.97;;
35488;SDS011;21602;55.670;37.578;2023-03-08T02:42:50;12.60;;;7.97;;
35488;SDS011;21602;55.670;37.578;2023-03-08T02:45:16;12.10;;;7.63;;
35488;SDS011;21602;55.670;37.578;2023-03-08T02:47:42;15.47;;;8.70;;
35488;SDS011;21602;55.670;37.578;2023-03-08T02:50:08;15.77;;;8.87;;
35488;SDS011;21602;55.670;37.578;2023-03-08T02:52:34;22.57;;;8.97;;
35488;SDS011;21602;55.670;37.578;2023-03-08T02:55:00;19.23;;;9.50;;
35488;SDS011;21602;55.670;37.578;2023-03-08T02:57:26;15.47;;;8.17;;
35488;SDS011;21602;55.670;37.578;2023-03-08T02:59:53;18.97;;;9.37;;
35488;SDS011;21602;55.670;37.578;2023-03-08T03:02:19;15.30;;;9.67;;
35488;SDS011;21602;55.670;37.578;2023-03-08T03:04:44;16.73;;;9.13;;
35488;SDS011;21602;55.670;37.578;2023-03-08T03:07:11;17.10;;;9.30;;
35488;SDS011;21602;55.670;37.578;2023-03-08T03:09:37;16.17;;;9.50;;
35488;SDS011;21602;55.670;37.578;2023-03-08T03:12:03;15.03;;;8.57;;
35488;SDS011;21602;55.670;37.578;2023-03-08T03:16:58;14.43;;;9.67;;
35488;SDS011;21602;55.670;37.578;2023-03-08T03:19:24;17.07;;;8.93;;
35488;SDS011;21602;55.670;37.578;2023-03-08T03:21:51;19.50;;;10.07;;
35488;SDS011;21602;55.670;37.578;2023-03-08T03:24:18;14.82;;;9.30;;
35488;SDS011;21602;55.670;37.578;2023-03-08T03:26:56;18.77;;;9.10;;
35488;SDS011;21602;55.670;37.578;2023-03-08T03:29:25;18.37;;;10.23;;
35488;SDS011;21602;55.670;37.578;2023-03-08T03:31:58;17.10;;;9.73;;
35488;SDS011;21602;55.670;37.578;2023-03-08T03:34:24;15.90;;;8.63;;
35488;SDS011;21602;55.670;37.578;2023-03-08T03:36:50;22.23;;;9.17;;
35488;SDS011;21602;55.670;37.578;2023-03-08T03:39:16;18.27;;;9.53;;
35488;SDS011;21602;55.670;37.578;2023-03-08T03:41:43;21.67;;;9.97;;
35488;SDS011;21602;55.670;37.578;2023-03-08T03:44:12;24.30;;;8.83;;
35488;SDS011;21602;55.670;37.578;2023-03-08T03:46:40;23.10;;;10.57;;
35488;SDS011;21602;55.670;37.578;2023-03-08T03:49:08;22.70;;;10.05;;
35488;SDS011;21602;55.670;37.578;2023-03-08T03:51:37;24.60;;;10.93;;
35488;SDS011;21602;55.670;37.578;2023-03-08T03:54:12;26.07;;;10.60;;
35488;SDS011;21602;55.670;37.578;2023-03-08T03:56:42;22.07;;;11.27;;
35488;SDS011;21602;55.670;37.578;2023-03-08T03:59:12;26.63;;;11.00;;
35488;SDS011;21602;55.670;37.578;2023-03-08T04:01:38;31.20;;;12.83;;
35488;SDS011;21602;55.670;37.578;2023-03-08T04:04:13;32.47;;;13.77;;
35488;SDS011;21602;55.670;37.578;2023-03-08T04:06:41;30.80;;;12.45;;
35488;SDS011;21602;55.670;37.578;2023-03-08T04:09:11;29.17;;;11.93;;
35488;SDS011;21602;55.670;37.578;2023-03-08T04:11:41;30.80;;;12.37;;
35488;SDS011;21602;55.670;37.578;2023-03-08T04:14:13;29.97;;;10.83;;
35488;SDS011;21602;55.670;37.578;2023-03-08T04:16:39;39.13;;;12.87;;
35488;SDS011;21602;55.670;37.578;2023-03-08T04:19:11;29.67;;;13.67;;
35488;SDS011;21602;55.670;37.578;2023-03-08T04:21:44;35.67;;;10.83;;
35488;SDS011;21602;55.670;37.578;2023-03-08T04:24:11;30.77;;;12.97;;
35488;SDS011;21602;55.670;37.578;2023-03-08T04:26:37;33.40;;;12.00;;
35488;SDS011;21602;55.670;37.578;2023-03-08T04:29:03;30.47;;;12.80;;
35488;SDS011;21602;55.670;37.578;2023-03-08T04:34:02;36.63;;;14.17;;
35488;SDS011;21602;55.670;37.578;2023-03-08T04:36:28;39.40;;;13.30;;
35488;SDS011;21602;55.670;37.578;2023-03-08T04:41:23;32.40;;;10.67;;
35488;SDS011;21602;55.670;37.578;2023-03-08T04:43:56;35.67;;;13.43;;
35488;SDS011;21602;55.670;37.578;2023-03-08T04:46:31;36.57;;;12.90;;
35488;SDS011;21602;55.670;37.578;2023-03-08T04:48:58;37.07;;;13.13;;
35488;SDS011;21602;55.670;37.578;2023-03-08T04:51:28;44.67;;;12.33;;
35488;SDS011;21602;55.670;37.578;2023-03-08T04:53:59;46.57;;;15.07;;
35488;SDS011;21602;55.670;37.578;2023-03-08T04:56:24;31.73;;;12.30;;
35488;SDS011;21602;55.670;37.578;2023-03-08T04:58:51;25.97;;;11.57;;
35488;SDS011;21602;55.670;37.578;2023-03-08T05:01:21;37.03;;;14.00;;
35488;SDS011;21602;55.670;37.578;2023-03-08T05:03:48;33.97;;;13.43;;
35488;SDS011;21602;55.670;37.578;2023-03-08T05:06:17;41.50;;;15.93;;
35488;SDS011;21602;55.670;37.578;2023-03-08T05:08:45;30.02;;;12.77;;
35488;SDS011;21602;55.670;37.578;2023-03-08T05:11:44;37.73;;;15.63;;
35488;SDS011;21602;55.670;37.578;2023-03-08T05:14:04;34.03;;;14.53;;
35488;SDS011;21602;55.670;37.578;2023-03-08T05:16:30;34.23;;;15.13;;
35488;SDS011;21602;55.670;37.578;2023-03-08T05:18:56;36.00;;;15.43;;
35488;SDS011;21602;55.670;37.578;2023-03-08T05:21:25;34.87;;;15.43;;
35488;SDS011;21602;55.670;37.578;2023-03-08T05:23:57;33.30;;;16.00;;
35488;SDS011;21602;55.670;37.578;2023-03-08T05:26:25;32.13;;;15.25;;
35488;SDS011;21602;55.670;37.578;2023-03-08T05:28:51;36.53;;;17.30;;
35488;SDS011;21602;55.670;37.578;2023-03-08T05:31:21;35.63;;;16.43;;
35488;SDS011;21602;55.670;37.578;2023-03-08T05:33:50;42.77;;;18.97;;
35488;SDS011;21602;55.670;37.578;2023-03-08T05:36:22;40.93;;;18.87;;
35488;SDS011;21602;55.670;37.578;2023-03-08T05:38:51;33.93;;;15.03;;
35488;SDS011;21602;55.670;37.578;2023-03-08T05:41:20;29.73;;;13.97;;
35488;SDS011;21602;55.670;37.578;2023-03-08T05:43:49;29.37;;;16.23;;
35488;SDS011;21602;55.670;37.578;2023-03-08T05:46:18;34.63;;;17.13;;
35488;SDS011;21602;55.670;37.578;2023-03-08T05:48:46;25.43;;;14.30;;
35488;SDS011;21602;55.670;37.578;2023-03-08T05:51:15;30.70;;;15.38;;
35488;SDS011;21602;55.670;37.578;2023-03-08T05:53:43;28.63;;;14.27;;
35488;SDS011;21602;55.670;37.578;2023-03-08T05:56:11;24.57;;;13.60;;
35488;SDS011;21602;55.670;37.578;2023-03-08T05:58:43;24.90;;;13.77;;
35488;SDS011;21602;55.670;37.578;2023-03-08T06:01:11;25.63;;;12.70;;
35488;SDS011;21602;55.670;37.578;2023-03-08T06:03:40;16.17;;;10.67;;
35488;SDS011;21602;55.670;37.578;2023-03-08T06:06:07;21.77;;;12.67;;
35488;SDS011;21602;55.670;37.578;2023-03-08T06:08:33;22.73;;;12.47;;
35488;SDS011;21602;55.670;37.578;2023-03-08T06:11:01;17.95;;;10.88;;
35488;SDS011;21602;55.670;37.578;2023-03-08T06:13:27;24.37;;;14.13;;
35488;SDS011;21602;55.670;37.578;2023-03-08T06:15:54;22.00;;;11.90;;
35488;SDS011;21602;55.670;37.578;2023-03-08T06:20:56;19.73;;;10.20;;
35488;SDS011;21602;55.670;37.578;2023-03-08T06:23:27;14.77;;;9.27;;
35488;SDS011;21602;55.670;37.578;2023-03-08T06:25:54;13.32;;;9.77;;
35488;SDS011;21602;55.670;37.578;2023-03-08T06:28:20;12.50;;;7.55;;
35488;SDS011;21602;55.670;37.578;2023-03-08T06:30:47;16.85;;;8.82;;
35488;SDS011;21602;55.670;37.578;2023-03-08T06:33:15;11.87;;;6.97;;
35488;SDS011;21602;55.670;37.578;2023-03-08T06:35:55;10.03;;;6.50;;
35488;SDS011;21602;55.670;37.578;2023-03-08T06:38:36;11.50;;;6.53;;
35488;SDS011;21602;55.670;37.578;2023-03-08T06:41:03;10.32;;;6.00;;
35488;SDS011;21602;55.670;37.578;2023-03-08T06:43:30;11.10;;;6.63;;
35488;SDS011;21602;55.670;37.578;2023-03-08T06:45:57;12.70;;;7.17;;
35488;SDS011;21602;55.670;37.578;2023-03-08T06:48:22;9.43;;;6.05;;
35488;SDS011;21602;55.670;37.578;2023-03-08T06:50:50;26.67;;;12.60;;
35488;SDS011;21602;55.670;37.578;2023-03-08T06:53:16;8.98;;;6.50;;
35488;SDS011;21602;55.670;37.578;2023-03-08T06:55:53;7.03;;;5.43;;
35488;SDS011;21602;55.670;37.578;2023-03-08T06:58:19;7.97;;;5.25;;
35488;SDS011;21602;55.670;37.578;2023-03-08T07:00:45;9.07;;;6.60;;
35488;SDS011;21602;55.670;37.578;2023-03-08T07:03:15;11.27;;;6.63;;
35488;SDS011;21602;55.670;37.578;2023-03-08T07:05:45;13.38;;;7.22;;
35488;SDS011;21602;55.670;37.578;2023-03-08T07:08:10;9.82;;;6.05;;
35488;SDS011;21602;55.670;37.578;2023-03-08T07:10:36;11.00;;;6.30;;
35488;SDS011;21602;55.670;37.578;2023-03-08T07:13:02;10.88;;;6.82;;
35488;SDS011;21602;55.670;37.578;2023-03-08T07:15:28;10.88;;;6.45;;
35488;SDS011;21602;55.670;37.578;2023-03-08T07:17:55;9.00;;;5.85;;
35488;SDS011;21602;55.670;37.578;2023-03-08T07:20:22;10.43;;;5.88;;
35488;SDS011;21602;55.670;37.578;2023-03-08T07:22:49;9.83;;;5.37;;
35488;SDS011;21602;55.670;37.578;2023-03-08T07:25:16;12.93;;;6.00;;
35488;SDS011;21602;55.670;37.578;2023-03-08T07:27:43;9.05;;;5.45;;
35488;SDS011;21602;55.670;37.578;2023-03-08T07:30:10;9.23;;;5.72;;
35488;SDS011;21602;55.670;37.578;2023-03-08T07:32:55;7.72;;;5.60;;
35488;SDS011;21602;55.670;37.578;2023-03-08T07:35:21;9.52;;;6.65;;
35488;SDS011;21602;55.670;37.578;2023-03-08T07:37:48;13.57;;;7.97;;
35488;SDS011;21602;55.670;37.578;2023-03-08T07:40:14;11.65;;;6.75;;
35488;SDS011;21602;55.670;37.578;2023-03-08T07:42:42;8.93;;;5.88;;
35488;SDS011;21602;55.670;37.578;2023-03-08T07:45:36;7.93;;;5.25;;
35488;SDS011;21602;55.670;37.578;2023-03-08T07:48:04;7.97;;;6.07;;
35488;SDS011;21602;55.670;37.578;2023-03-08T07:50:31;9.65;;;5.78;;
35488;SDS011;21602;55.670;37.578;2023-03-08T07:52:57;9.98;;;6.32;;
35488;SDS011;21602;55.670;37.578;2023-03-08T07:55:25;12.07;;;6.93;;
35488;SDS011;21602;55.670;37.578;2023-03-08T07:57:52;7.77;;;5.70;;
35488;SDS011;21602;55.670;37.578;2023-03-08T08:00:21;8.30;;;6.05;;
35488;SDS011;21602;55.670;37.578;2023-03-08T08:02:47;11.55;;;6.85;;
35488;SDS011;21602;55.670;37.578;2023-03-08T08:05:13;8.05;;;4.80;;
35488;SDS011;21602;55.670;37.578;2023-03-08T08:07:39;9.40;;;5.97;;
35488;SDS011;21602;55.670;37.578;2023-03-08T08:10:05;11.45;;;6.13;;
35488;SDS011;21602;55.670;37.578;2023-03-08T08:12:32;13.55;;;8.10;;
35488;SDS011;21602;55.670;37.578;2023-03-08T08:14:59;9.93;;;6.00;;
35488;SDS011;21602;55.670;37.578;2023-03-08T08:17:25;10.00;;;6.35;;
35488;SDS011;21602;55.670;37.578;2023-03-08T08:19:51;9.30;;;5.88;;
35488;SDS011;21602;55.670;37.578;2023-03-08T08:22:17;8.20;;;6.28;;
35488;SDS011;21602;55.670;37.578;2023-03-08T08:24:43;10.10;;;5.53;;
35488;SDS011;21602;55.670;37.578;2023-03-08T08:27:09;10.80;;;6.63;;
35488;SDS011;21602;55.670;37.578;2023-03-08T08:29:36;7.32;;;5.18;;
35488;SDS011;21602;55.670;37.578;2023-03-08T08:32:02;12.35;;;5.60;;
35488;SDS011;21602;55.670;37.578;2023-03-08T08:34:31;7.25;;;5.47;;
35488;SDS011;21602;55.670;37.578;2023-03-08T08:37:00;9.45;;;5.97;;
35488;SDS011;21602;55.670;37.578;2023-03-08T08:39:32;11.50;;;6.20;;
35488;SDS011;21602;55.670;37.578;2023-03-08T08:41:58;10.80;;;6.65;;
35488;SDS011;21602;55.670;37.578;2023-03-08T08:44:27;10.00;;;5.90;;
35488;SDS011;21602;55.670;37.578;2023-03-08T08:46:55;7.35;;;5.13;;
35488;SDS011;21602;55.670;37.578;2023-03-08T08:49:21;6.78;;;4.70;;
35488;SDS011;21602;55.670;37.578;2023-03-08T08:51:47;8.70;;;5.40;;
35488;SDS011;21602;55.670;37.578;2023-03-08T08:54:14;6.35;;;3.88;;
35488;SDS011;21602;55.670;37.578;2023-03-08T08:56:41;6.05;;;4.63;;
35488;SDS011;21602;55.670;37.578;2023-03-08T08:59:08;6.32;;;4.72;;
35488;SDS011;21602;55.670;37.578;2023-03-08T09:01:36;12.68;;;4.13;;
35488;SDS011;21602;55.670;37.578;2023-03-08T09:04:11;7.18;;;4.38;;
35488;SDS011;21602;55.670;37.578;2023-03-08T09:06:38;8.07;;;4.80;;
35488;SDS011;21602;55.670;37.578;2023-03-08T09:37:57;7.97;;;5.03;;
35488;SDS011;21602;55.670;37.578;2023-03-08T09:40:25;8.07;;;5.37;;
35488;SDS011;21602;55.670;37.578;2023-03-08T09:42:55;6.75;;;5.00;;
35488;SDS011;21602;55.670;37.578;2023-03-08T09:45:28;10.20;;;5.57;;
35488;SDS011;21602;55.670;37.578;2023-03-08T09:47:59;8.65;;;5.45;;
35488;SDS011;21602;55.670;37.578;2023-03-08T09:53:43;10.45;;;6.35;;
35488;SDS011;21602;55.670;37.578;2023-03-08T09:56:29;10.07;;;7.30;;
35488;SDS011;21602;55.670;37.578;2023-03-08T09:59:10;14.55;;;7.10;;
35488;SDS011;21602;55.670;37.578;2023-03-08T10:04:31;11.52;;;7.22;;
35488;SDS011;21602;55.670;37.578;2023-03-08T10:07:11;10.65;;;6.90;;
35488;SDS011;21602;55.670;37.578;2023-03-08T10:09:47;12.55;;;6.68;;
35488;SDS011;21602;55.670;37.578;2023-03-08T10:15:29;13.75;;;7.30;;
35488;SDS011;21602;55.670;37.578;2023-03-08T10:20:58;9.98;;;6.85;;
35488;SDS011;21602;55.670;37.578;2023-03-08T10:23:27;10.95;;;7.05;;
35488;SDS011;21602;55.670;37.578;2023-03-08T10:25:55;8.30;;;6.18;;
35488;SDS011;21602;55.670;37.578;2023-03-08T10:28:22;14.40;;;7.88;;
35488;SDS011;21602;55.670;37.578;2023-03-08T10:30:55;10.68;;;7.63;;
35488;SDS011;21602;55.670;37.578;2023-03-08T10:33:28;10.95;;;7.85;;
35488;SDS011;21602;55.670;37.578;2023-03-08T10:35:59;12.88;;;7.22;;
35488;SDS011;21602;55.670;37.578;2023-03-08T10:38:28;12.20;;;8.68;;
35488;SDS011;21602;55.670;37.578;2023-03-08T10:41:15;12.15;;;7.72;;
35488;SDS011;21602;55.670;37.578;2023-03-08T10:43:46;13.05;;;8.52;;
35488;SDS011;21602;55.670;37.578;2023-03-08T10:46:21;14.05;;;8.05;;
35488;SDS011;21602;55.670;37.578;2023-03-08T10:48:48;13.98;;;8.10;;
35488;SDS011;21602;55.670;37.578;2023-03-08T10:51:19;16.05;;;9.52;;
35488;SDS011;21602;55.670;37.578;2023-03-08T10:53:53;14.27;;;8.95;;
35488;SDS011;21602;55.670;37.578;2023-03-08T10:56:38;15.40;;;9.93;;
35488;SDS011;21602;55.670;37.578;2023-03-08T10:59:15;14.45;;;8.77;;
35488;SDS011;21602;55.670;37.578;2023-03-08T11:01:49;13.85;;;9.23;;
35488;SDS011;21602;55.670;37.578;2023-03-08T11:04:19;17.50;;;10.50;;
35488;SDS011;21602;55.670;37.578;2023-03-08T11:06:47;16.38;;;9.45;;
35488;SDS011;21602;55.670;37.578;2023-03-08T11:09:21;20.45;;;11.13;;
35488;SDS011;21602;55.670;37.578;2023-03-08T11:11:50;15.65;;;9.98;;
35488;SDS011;21602;55.670;37.578;2023-03-08T11:14:16;15.15;;;9.32;;
35488;SDS011;21602;55.670;37.578;2023-03-08T11:22:17;13.88;;;9.05;;
35488;SDS011;21602;55.670;37.578;2023-03-08T11:24:58;15.57;;;9.65;;
35488;SDS011;21602;55.670;37.578;2023-03-08T11:30:37;11.98;;;7.68;;
35488;SDS011;21602;55.670;37.578;2023-03-08T11:38:29;12.07;;;9.40;;
35488;SDS011;21602;55.670;37.578;2023-03-08T11:41:03;18.23;;;10.80;;
35488;SDS011;21602;55.670;37.578;2023-03-08T11:52:36;16.13;;;9.45;;
35488;SDS011;21602;55.670;37.578;2023-03-08T11:58:01;11.98;;;8.60;;
35488;SDS011;21602;55.670;37.578;2023-03-08T12:00:43;11.90;;;8.38;;
35488;SDS011;21602;55.670;37.578;2023-03-08T12:03:23;14.05;;;8.85;;
35488;SDS011;21602;55.670;37.578;2023-03-08T12:05:54;13.82;;;8.80;;
35488;SDS011;21602;55.670;37.578;2023-03-08T12:08:26;13.20;;;9.80;;
35488;SDS011;21602;55.670;37.578;2023-03-08T12:11:07;13.88;;;8.65;;
35488;SDS011;21602;55.670;37.578;2023-03-08T12:13:42;12.00;;;7.63;;
35488;SDS011;21602;55.670;37.578;2023-03-08T12:16:24;11.48;;;8.93;;
35488;SDS011;21602;55.670;37.578;2023-03-08T12:18:55;12.07;;;8.60;;
35488;SDS011;21602;55.670;37.578;2023-03-08T12:24:14;10.20;;;8.10;;
35488;SDS011;21602;55.670;37.578;2023-03-08T12:27:02;12.27;;;8.90;;
35488;SDS011;21602;55.670;37.578;2023-03-08T12:32:04;11.60;;;8.27;;
35488;SDS011;21602;55.670;37.578;2023-03-08T12:37:01;11.98;;;7.88;;
35488;SDS011;21602;55.670;37.578;2023-03-08T12:39:32;11.43;;;8.52;;
35488;SDS011;21602;55.670;37.578;2023-03-08T12:42:01;12.55;;;9.35;;
35488;SDS011;21602;55.670;37.578;2023-03-08T12:44:28;11.93;;;9.25;;
35488;SDS011;21602;55.670;37.578;2023-03-08T12:46:56;11.53;;;9.30;;
35488;SDS011;21602;55.670;37.578;2023-03-08T12:52:04;16.33;;;10.88;;
35488;SDS011;21602;55.670;37.578;2023-03-08T12:57:31;16.15;;;9.77;;
35488;SDS011;21602;55.670;37.578;2023-03-08T13:00:03;15.98;;;10.02;;
35488;SDS011;21602;55.670;37.578;2023-03-08T13:05:41;15.85;;;10.60;;
35488;SDS011;21602;55.670;37.578;2023-03-08T13:10:38;18.65;;;9.40;;
35488;SDS011;21602;55.670;37.578;2023-03-08T13:16:21;12.10;;;9.98;;
35488;SDS011;21602;55.670;37.578;2023-03-08T13:19:05;12.70;;;9.27;;
35488;SDS011;21602;55.670;37.578;2023-03-08T13:21:48;17.67;;;11.35;;
35488;SDS011;21602;55.670;37.578;2023-03-08T13:32:40;14.88;;;10.35;;
35488;SDS011;21602;55.670;37.578;2023-03-08T13:35:10;14.80;;;9.23;;
35488;SDS011;21602;55.670;37.578;2023-03-08T13:37:50;15.25;;;9.45;;
35488;SDS011;21602;55.670;37.578;2023-03-08T13:40:18;17.35;;;10.32;;
35488;SDS011;21602;55.670;37.578;2023-03-08T13:42:56;15.88;;;8.57;;
35488;SDS011;21602;55.670;37.578;2023-03-08T13:45:22;13.60;;;10.65;;
35488;SDS011;21602;55.670;37.578;2023-03-08T13:47:56;13.48;;;10.80;;
35488;SDS011;21602;55.670;37.578;2023-03-08T13:52:50;17.23;;;11.82;;
35488;SDS011;21602;55.670;37.578;2023-03-08T13:55:20;15.73;;;10.73;;
35488;SDS011;21602;55.670;37.578;2023-03-08T13:57:51;11.73;;;8.32;;
35488;SDS011;21602;55.670;37.578;2023-03-08T14:00:22;15.70;;;10.63;;
35488;SDS011;21602;55.670;37.578;2023-03-08T14:02:49;12.27;;;7.68;;
35488;SDS011;21602;55.670;37.578;2023-03-08T14:05:15;15.70;;;9.05;;
35488;SDS011;21602;55.670;37.578;2023-03-08T14:08:00;16.70;;;9.25;;
35488;SDS011;21602;55.670;37.578;2023-03-08T14:10:41;13.07;;;9.25;;
35488;SDS011;21602;55.670;37.578;2023-03-08T14:13:19;17.05;;;11.05;;
35488;SDS011;21602;55.670;37.578;2023-03-08T14:16:06;13.77;;;9.73;;
35488;SDS011;21602;55.670;37.578;2023-03-08T14:18:37;13.80;;;10.05;;
35488;SDS011;21602;55.670;37.578;2023-03-08T14:21:12;16.75;;;9.85;;
35488;SDS011;21602;55.670;37.578;2023-03-08T14:23:51;14.57;;;10.05;;
35488;SDS011;21602;55.670;37.578;2023-03-08T14:26:38;14.95;;;10.25;;
35488;SDS011;21602;55.670;37.578;2023-03-08T14:29:20;17.45;;;10.00;;
35488;SDS011;21602;55.670;37.578;2023-03-08T14:37:10;14.90;;;10.52;;
35488;SDS011;21602;55.670;37.578;2023-03-08T14:39:53;13.90;;;9.40;;
35488;SDS011;21602;55.670;37.578;2023-03-08T14:42:40;13.98;;;9.27;;
35488;SDS011;21602;55.670;37.578;2023-03-08T14:45:19;15.85;;;8.48;;
35488;SDS011;21602;55.670;37.578;2023-03-08T14:47:54;17.15;;;11.88;;
35488;SDS011;21602;55.670;37.578;2023-03-08T14:50:26;14.63;;;10.50;;
35488;SDS011;21602;55.670;37.578;2023-03-08T14:52:58;17.33;;;11.32;;
35488;SDS011;21602;55.670;37.578;2023-03-08T14:55:31;24.35;;;13.98;;
35488;SDS011;21602;55.670;37.578;2023-03-08T14:58:03;17.73;;;12.02;;
35488;SDS011;21602;55.670;37.578;2023-03-08T15:00:35;20.52;;;11.75;;
35488;SDS011;21602;55.670;37.578;2023-03-08T15:03:02;20.80;;;12.05;;
35488;SDS011;21602;55.670;37.578;2023-03-08T15:05:28;17.92;;;12.52;;
35488;SDS011;21602;55.670;37.578;2023-03-08T15:07:55;20.45;;;12.27;;
35488;SDS011;21602;55.670;37.578;2023-03-08T15:10:25;20.80;;;13.25;;
35488;SDS011;21602;55.670;37.578;2023-03-08T15:13:02;21.08;;;12.90;;
35488;SDS011;21602;55.670;37.578;2023-03-08T15:15:40;21.23;;;12.95;;
35488;SDS011;21602;55.670;37.578;2023-03-08T15:18:06;16.85;;;11.65;;
35488;SDS011;21602;55.670;37.578;2023-03-08T15:20:31;21.20;;;12.45;;
35488;SDS011;21602;55.670;37.578;2023-03-08T15:22:58;20.63;;;13.80;;
35488;SDS011;21602;55.670;37.578;2023-03-08T15:25:31;19.40;;;12.55;;
35488;SDS011;21602;55.670;37.578;2023-03-08T15:28:00;16.67;;;10.10;;
35488;SDS011;21602;55.670;37.578;2023-03-08T15:30:30;20.45;;;13.23;;
35488;SDS011;21602;55.670;37.578;2023-03-08T15:32:56;19.88;;;12.90;;
35488;SDS011;21602;55.670;37.578;2023-03-08T15:35:29;18.58;;;11.85;;
35488;SDS011;21602;55.670;37.578;2023-03-08T15:37:55;19.75;;;11.15;;
35488;SDS011;21602;55.670;37.578;2023-03-08T15:40:27;18.45;;;12.05;;
35488;SDS011;21602;55.670;37.578;2023-03-08T15:43:00;20.73;;;13.70;;
35488;SDS011;21602;55.670;37.578;2023-03-08T15:45:46;20.67;;;13.50;;
35488;SDS011;21602;55.670;37.578;2023-03-08T15:48:16;22.50;;;13.68;;
35488;SDS011;21602;55.670;37.578;2023-03-08T15:50:43;21.35;;;13.75;;
35488;SDS011;21602;55.670;37.578;2023-03-08T15:53:17;22.92;;;13.70;;
35488;SDS011;21602;55.670;37.578;2023-03-08T15:55:58;25.20;;;14.18;;
35488;SDS011;21602;55.670;37.578;2023-03-08T15:58:24;21.95;;;14.18;;
35488;SDS011;21602;55.670;37.578;2023-03-08T16:00:52;22.95;;;14.32;;
35488;SDS011;21602;55.670;37.578;2023-03-08T16:03:27;24.10;;;14.35;;
35488;SDS011;21602;55.670;37.578;2023-03-08T16:06:06;25.02;;;15.18;;
35488;SDS011;21602;55.670;37.578;2023-03-08T16:08:44;19.15;;;11.77;;
35488;SDS011;21602;55.670;37.578;2023-03-08T16:11:14;22.92;;;14.70;;
35488;SDS011;21602;55.670;37.578;2023-03-08T16:13:44;22.10;;;13.93;;
35488;SDS011;21602;55.670;37.578;2023-03-08T16:18:38;18.63;;;12.13;;
35488;SDS011;21602;55.670;37.578;2023-03-08T16:21:05;21.80;;;13.43;;
35488;SDS011;21602;55.670;37.578;2023-03-08T16:23:33;20.58;;;12.93;;
35488;SDS011;21602;55.670;37.578;2023-03-08T16:26:01;21.92;;;14.55;;
35488;SDS011;21602;55.670;37.578;2023-03-08T16:28:32;22.13;;;13.70;;
35488;SDS011;21602;55.670;37.578;2023-03-08T16:30:58;24.70;;;15.45;;
35488;SDS011;21602;55.670;37.578;2023-03-08T16:33:28;18.08;;;11.88;;
35488;SDS011;21602;55.670;37.578;2023-03-08T16:35:55;20.83;;;14.27;;
35488;SDS011;21602;55.670;37.578;2023-03-08T16:38:24;24.23;;;14.07;;